createdAt,value
2022-09-28T00:00:07.596Z,99530.66
2022-09-28T00:02:35.867Z,99529.84
2022-09-28T00:05:03.608Z,99535.22
2022-09-28T00:07:31.357Z,99541.44
2022-09-28T00:10:00.517Z,99533.91
2022-09-28T00:12:29.811Z,99525.00
2022-09-28T00:14:57.515Z,99531.75
2022-09-28T00:17:26.508Z,99534.44
2022-09-28T00:19:54.220Z,99535.50
2022-09-28T00:22:21.937Z,99532.81
2022-09-28T00:24:49.658Z,99539.28
2022-09-28T00:27:18.741Z,99537.66
2022-09-28T00:29:46.556Z,99538.72
2022-09-28T00:32:15.643Z,99537.38
2022-09-28T00:34:45.972Z,99514.44
2022-09-28T00:37:15.174Z,99526.59
2022-09-28T00:39:44.033Z,99526.59
2022-09-28T00:42:15.521Z,99525.78
2022-09-28T00:44:48.625Z,99527.41
2022-09-28T00:47:28.081Z,99527.66
2022-09-28T00:50:01.209Z,99512.59
2022-09-28T00:52:33.745Z,99513.41
2022-09-28T00:55:05.040Z,99509.91
2022-09-28T00:57:33.697Z,99512.59
2022-09-28T01:00:04.289Z,99516.91
2022-09-28T01:02:32.738Z,99506.38
2022-09-28T01:05:01.461Z,99501.00
2022-09-28T01:07:29.791Z,99498.31
2022-09-28T01:09:57.687Z,99502.63
2022-09-28T01:12:25.411Z,99502.88
2022-09-28T01:14:53.732Z,99499.13
2022-09-28T01:17:27.697Z,99487.53
2022-09-28T01:20:23.714Z,99485.38
2022-09-28T01:23:20.838Z,99495.06
2022-09-28T01:25:55.948Z,99497.22
2022-09-28T01:28:29.051Z,99502.34
2022-09-28T01:31:05.562Z,99505.84
2022-09-28T01:33:39.210Z,99504.22
2022-09-28T01:36:12.860Z,99503.41
2022-09-28T01:38:45.660Z,99507.19
2022-09-28T01:41:14.668Z,99504.50
2022-09-28T01:43:48.977Z,99509.88
2022-09-28T01:46:20.391Z,99510.94
2022-09-28T01:48:53.463Z,99517.41
2022-09-28T01:51:27.026Z,99514.72
2022-09-28T01:53:58.569Z,99514.44
2022-09-28T01:56:31.783Z,99517.13
2022-09-28T01:59:09.327Z,99522.75
2022-09-28T02:01:41.419Z,99512.25
2022-09-28T02:04:15.625Z,99516.03
2022-09-28T02:06:47.943Z,99509.56
2022-09-28T02:09:21.185Z,99508.75
2022-09-28T02:11:54.809Z,99505.25
2022-09-28T02:14:26.098Z,99503.38
2022-09-28T02:16:55.753Z,99510.66
2022-09-28T02:19:26.546Z,99495.00
2022-09-28T02:21:59.537Z,99508.22
2022-09-28T02:24:33.402Z,99508.22
2022-09-28T02:27:10.252Z,99510.91
2022-09-28T02:29:39.140Z,99510.91
2022-09-28T02:32:06.929Z,99512.25
2022-09-28T02:34:36.616Z,99510.09
2022-09-28T02:37:04.970Z,99506.59
2022-09-28T02:39:32.704Z,99514.94
2022-09-28T02:42:09.135Z,99508.47
2022-09-28T02:45:06.502Z,99513.84
2022-09-28T02:47:46.184Z,99506.84
2022-09-28T02:50:21.772Z,99518.69
2022-09-28T02:53:15.987Z,99512.50
2022-09-28T02:55:57.559Z,99512.50
2022-09-28T02:58:40.603Z,99512.50
2022-09-28T03:01:21.955Z,99517.88
2022-09-28T03:03:55.513Z,99518.97
2022-09-28T03:06:28.344Z,99524.34
2022-09-28T03:09:01.298Z,99516.25
2022-09-28T03:11:34.559Z,99523.75
2022-09-28T03:14:04.123Z,99519.44
2022-09-28T03:16:33.305Z,99512.44
2022-09-28T03:19:01.070Z,99495.41
2022-09-28T03:21:28.799Z,99520.53
2022-09-28T03:23:56.528Z,99527.78
2022-09-28T03:26:24.265Z,99526.97
2022-09-28T03:28:51.956Z,99525.09
2022-09-28T03:31:19.918Z,99524.28
2022-09-28T03:33:49.335Z,99523.47
2022-09-28T03:36:17.066Z,99523.47
2022-09-28T03:38:45.066Z,99520.78
2022-09-28T03:41:12.832Z,99516.47
2022-09-28T03:43:40.588Z,99515.66
2022-09-28T03:46:08.301Z,99514.59
2022-09-28T03:48:37.464Z,99516.72
2022-09-28T03:51:09.270Z,99519.44
2022-09-28T03:53:37.245Z,99532.06
2022-09-28T03:56:06.366Z,99518.63
2022-09-28T03:58:34.227Z,99532.06
2022-09-28T04:01:06.568Z,99518.88
2022-09-28T04:03:34.773Z,99528.03
2022-09-28T04:06:02.927Z,99526.13
2022-09-28T04:08:32.451Z,99527.22
2022-09-28T04:11:00.635Z,99509.13
2022-09-28T04:13:29.907Z,99516.72
2022-09-28T04:15:59.266Z,99521.28
2022-09-28T04:18:27.351Z,99524.22
2022-09-28T04:21:06.513Z,99526.94
2022-09-28T04:23:37.136Z,99525.84
2022-09-28T04:26:05.676Z,99519.59
2022-09-28T04:28:51.882Z,99531.75
2022-09-28T04:31:22.094Z,99535.25
2022-09-28T04:33:50.148Z,99529.06
2022-09-28T04:36:19.940Z,99528.25
2022-09-28T04:38:53.272Z,99523.13
2022-09-28T04:41:22.409Z,99518.56
2022-09-28T04:43:51.009Z,99516.13
2022-09-28T04:46:18.921Z,99506.13
2022-09-28T04:48:46.860Z,99520.97
2022-09-28T04:51:14.556Z,99519.09
2022-09-28T04:53:42.300Z,99519.59
2022-09-28T04:56:13.799Z,99519.59
2022-09-28T04:58:41.797Z,99519.59
2022-09-28T05:01:12.706Z,99522.28
2022-09-28T05:03:40.752Z,99531.19
2022-09-28T05:06:08.867Z,99519.88
2022-09-28T05:08:37.173Z,99529.56
2022-09-28T05:11:08.272Z,99523.63
2022-09-28T05:13:42.735Z,99534.38
2022-09-28T05:16:11.125Z,99527.88
2022-09-28T05:18:39.475Z,99534.91
2022-09-28T05:21:11.136Z,99537.59
2022-09-28T05:23:38.900Z,99537.03
2022-09-28T05:26:06.887Z,99545.94
2022-09-28T05:28:35.164Z,99547.81
2022-09-28T05:31:05.944Z,99550.50
2022-09-28T05:33:34.807Z,99549.69
2022-09-28T05:36:02.971Z,99539.75
2022-09-28T05:38:31.347Z,99545.38
2022-09-28T05:41:01.200Z,99543.50
2022-09-28T05:43:33.069Z,99540.81
2022-09-28T05:46:01.484Z,99540.00
2022-09-28T05:48:30.662Z,99542.69
2022-09-28T05:50:59.782Z,99540.53
2022-09-28T05:53:27.722Z,99516.56
2022-09-28T05:55:58.853Z,99536.50
2022-09-28T05:58:26.581Z,99544.31
2022-09-28T06:00:55.647Z,99551.31
2022-09-28T06:03:23.646Z,99547.53
2022-09-28T06:05:52.812Z,99554.53
2022-09-28T06:08:23.467Z,99552.66
2022-09-28T06:10:51.226Z,99546.75
2022-09-28T06:13:18.938Z,99557.50
2022-09-28T06:15:47.373Z,99558.81
2022-09-28T06:18:16.345Z,99567.97
2022-09-28T06:20:44.392Z,99568.78
2022-09-28T06:23:14.451Z,99570.66
2022-09-28T06:25:42.291Z,99570.91
2022-09-28T06:28:12.510Z,99570.38
2022-09-28T06:30:41.845Z,99571.97
2022-09-28T06:33:13.556Z,99577.38
2022-09-28T06:35:42.232Z,99571.97
2022-09-28T06:38:10.262Z,99580.06
2022-09-28T06:40:39.581Z,99574.69
2022-09-28T06:43:10.903Z,99576.81
2022-09-28T06:45:39.707Z,99574.69
2022-09-28T06:48:08.248Z,99586.00
2022-09-28T06:50:38.394Z,99584.38
2022-09-28T06:53:07.652Z,99581.69
2022-09-28T06:55:35.371Z,99588.69
2022-09-28T06:58:05.908Z,99587.59
2022-09-28T07:00:35.795Z,99592.72
2022-09-28T07:03:05.109Z,99598.13
2022-09-28T07:05:35.114Z,99601.88
2022-09-28T07:08:03.543Z,99603.50
2022-09-28T07:10:32.488Z,99607.50
2022-09-28T07:13:03.117Z,99608.88
2022-09-28T07:15:33.182Z,99604.56
2022-09-28T07:18:03.994Z,99607.25
2022-09-28T07:20:35.085Z,99608.88
2022-09-28T07:23:18.612Z,99606.19
2022-09-28T07:25:48.153Z,99611.56
2022-09-28T07:28:17.259Z,99611.81
2022-09-28T07:30:46.371Z,99607.75
2022-09-28T07:33:15.964Z,99621.22
2022-09-28T07:35:51.736Z,99613.16
2022-09-28T07:38:19.908Z,99610.72
2022-09-28T07:41:06.131Z,99619.59
2022-09-28T07:43:33.933Z,99611.53
2022-09-28T07:46:03.351Z,99620.41
2022-09-28T07:48:37.837Z,99612.59
2022-09-28T07:51:06.175Z,99619.13
2022-09-28T07:53:34.040Z,99631.03
2022-09-28T07:56:05.096Z,99617.88
2022-09-28T07:58:33.788Z,99632.34
2022-09-28T08:01:07.110Z,99631.34
2022-09-28T08:03:35.526Z,99630.31
2022-09-28T08:06:05.940Z,99631.66
2022-09-28T08:08:35.074Z,99631.66
2022-09-28T08:11:04.152Z,99629.22
2022-09-28T08:13:32.339Z,99642.69
2022-09-28T08:16:02.912Z,99636.47
2022-09-28T08:18:32.434Z,99641.56
2022-09-28T08:21:17.922Z,99646.94
2022-09-28T08:23:45.665Z,99634.78
2022-09-28T08:26:15.707Z,99639.09
2022-09-28T08:28:45.256Z,99630.94
2022-09-28T08:31:13.244Z,99646.31
2022-09-28T08:33:43.107Z,99639.06
2022-09-28T08:36:12.086Z,99650.63
2022-09-28T08:38:39.823Z,99648.75
2022-09-28T08:41:16.625Z,99648.19
2022-09-28T08:44:06.970Z,99651.69
2022-09-28T08:46:38.742Z,99657.84
2022-09-28T08:49:24.945Z,99658.13
2022-09-28T08:52:00.497Z,99654.84
2022-09-28T08:54:39.036Z,99655.34
2022-09-28T08:57:12.214Z,99660.19
2022-09-28T08:59:52.448Z,99673.38
2022-09-28T09:02:25.538Z,99672.03
2022-09-28T09:04:55.819Z,99674.72
2022-09-28T09:07:38.264Z,99677.97
2022-09-28T09:10:14.807Z,99679.06
2022-09-28T09:12:50.425Z,99678.50
2022-09-28T09:15:39.479Z,99686.03
2022-09-28T09:18:25.878Z,99684.41
2022-09-28T09:20:58.384Z,99685.22
2022-09-28T09:23:41.911Z,99694.41
2022-09-28T09:26:21.448Z,99698.50
2022-09-28T09:29:06.382Z,99694.28
2022-09-28T09:31:50.184Z,99690.38
2022-09-28T09:34:42.701Z,99706.09
2022-09-28T09:37:25.233Z,99700.28
2022-09-28T09:40:08.718Z,99699.84
2022-09-28T09:42:52.584Z,99699.38
2022-09-28T09:45:46.609Z,99698.03
2022-09-28T09:48:20.732Z,99706.66
2022-09-28T09:50:52.232Z,99703.69
2022-09-28T09:53:28.897Z,99711.78
2022-09-28T09:55:58.535Z,99700.94
2022-09-28T09:58:30.652Z,99700.38
2022-09-28T10:01:07.422Z,99695.25
2022-09-28T10:03:40.112Z,99690.41
2022-09-28T10:06:13.199Z,99699.81
2022-09-28T10:08:47.210Z,99697.66
2022-09-28T10:11:18.195Z,99703.84
2022-09-28T10:13:49.250Z,99691.16
2022-09-28T10:16:19.219Z,99696.53
2022-09-28T10:18:47.372Z,99700.03
2022-09-28T10:21:16.019Z,99699.25
2022-09-28T10:23:47.347Z,99702.19
2022-09-28T10:26:25.360Z,99691.66
2022-09-28T10:28:57.026Z,99697.34
2022-09-28T10:31:39.084Z,99695.47
2022-09-28T10:34:08.499Z,99692.50
2022-09-28T10:36:48.231Z,99700.34
2022-09-28T10:39:36.628Z,99698.19
2022-09-28T10:42:08.777Z,99691.72
2022-09-28T10:44:50.316Z,99690.91
2022-09-28T10:47:20.896Z,99696.84
2022-09-28T10:49:51.405Z,99691.72
2022-09-28T10:52:37.368Z,99689.84
2022-09-28T10:55:28.918Z,99691.19
2022-09-28T10:57:56.676Z,99681.75
2022-09-28T11:00:38.643Z,99695.78
2022-09-28T11:03:07.011Z,99691.22
2022-09-28T11:05:35.980Z,99693.63
2022-09-28T11:08:07.998Z,99693.63
2022-09-28T11:10:37.399Z,99705.50
2022-09-28T11:13:09.968Z,99696.34
2022-09-28T11:15:44.054Z,99693.38
2022-09-28T11:18:28.325Z,99693.09
2022-09-28T11:21:11.679Z,99695.53
2022-09-28T11:23:42.235Z,99696.91
2022-09-28T11:26:18.197Z,99695.00
2022-09-28T11:28:52.270Z,99699.88
2022-09-28T11:31:27.080Z,99696.09
2022-09-28T11:34:05.352Z,99700.41
2022-09-28T11:36:47.009Z,99702.03
2022-09-28T11:39:28.190Z,99695.81
2022-09-28T11:42:16.131Z,99687.47
2022-09-28T11:44:46.518Z,99695.28
2022-09-28T11:47:50.607Z,99692.34
2022-09-28T11:50:29.813Z,99692.34
2022-09-28T11:53:05.710Z,99685.06
2022-09-28T11:55:38.154Z,99682.66
2022-09-28T11:58:12.953Z,99673.22
2022-09-28T12:00:47.122Z,99689.94
2022-09-28T12:03:19.534Z,99694.53
2022-09-28T12:05:53.210Z,99689.47
2022-09-28T12:08:27.436Z,99679.22
2022-09-28T12:11:01.220Z,99684.06
2022-09-28T12:13:36.271Z,99674.38
2022-09-28T12:16:32.344Z,99675.44
2022-09-28T12:21:38.539Z,99676.53
2022-09-28T12:24:16.230Z,99673.56
2022-09-28T12:26:49.797Z,99677.06
2022-09-28T12:29:23.928Z,99683.28
2022-09-28T12:31:59.170Z,99679.50
2022-09-28T12:34:27.067Z,99677.09
2022-09-28T12:37:24.471Z,99679.78
2022-09-28T12:40:09.088Z,99679.50
2022-09-28T12:42:52.907Z,99684.91
2022-09-28T12:45:53.218Z,99686.53
2022-09-28T12:48:57.244Z,99674.91
2022-09-28T12:51:45.774Z,99677.09
2022-09-28T12:54:34.500Z,99677.09
2022-09-28T12:57:16.576Z,99678.69
2022-09-28T12:59:57.378Z,99684.09
2022-09-28T13:03:00.056Z,99687.06
2022-09-28T13:06:06.384Z,99695.44
2022-09-28T13:08:44.558Z,99693.81
2022-09-28T13:11:24.120Z,99702.19
2022-09-28T13:14:04.360Z,99700.81
2022-09-28T13:16:40.383Z,99697.31
2022-09-28T13:19:16.895Z,99705.41
2022-09-28T13:21:51.937Z,99709.75
2022-09-28T13:24:34.041Z,99714.06
2022-09-28T13:27:06.855Z,99714.88
2022-09-28T13:29:35.343Z,99714.59
2022-09-28T13:32:04.755Z,99714.59
2022-09-28T13:34:36.547Z,99710.56
2022-09-28T13:37:25.628Z,99709.75
2022-09-28T13:39:55.170Z,99705.97
2022-09-28T13:42:37.874Z,99703.78
2022-09-28T13:45:18.612Z,99698.41
2022-09-28T13:48:06.740Z,99702.72
2022-09-28T13:50:49.955Z,99698.41
2022-09-28T13:53:28.307Z,99701.38
2022-09-28T13:56:05.623Z,99707.56
2022-09-28T13:58:39.971Z,99705.94
2022-09-28T14:01:12.565Z,99699.75
2022-09-28T14:03:54.317Z,99703.53
2022-09-28T14:06:26.996Z,99708.38
2022-09-28T14:09:25.549Z,99708.38
2022-09-28T14:11:58.916Z,99704.59
2022-09-28T14:14:50.359Z,99710.78
2022-09-28T14:17:53.242Z,99714.31
2022-09-28T14:20:27.808Z,99712.97
2022-09-28T14:23:16.997Z,99710.81
2022-09-28T14:25:46.488Z,99716.19
2022-09-28T14:28:30.765Z,99708.91
2022-09-28T14:30:59.858Z,99704.59
2022-09-28T14:33:30.453Z,99707.56
2022-09-28T14:36:02.223Z,99703.78
2022-09-28T14:38:53.518Z,99702.72
2022-09-28T14:41:33.810Z,99707.03
2022-09-28T14:44:04.903Z,99702.72
2022-09-28T14:46:44.729Z,99700.53
2022-09-28T14:49:51.314Z,99715.13
2022-09-28T14:52:38.963Z,99706.22
2022-09-28T14:55:13.755Z,99708.66
2022-09-28T14:57:43.114Z,99708.94
2022-09-28T15:00:20.270Z,99713.25
2022-09-28T15:02:52.629Z,99714.34
2022-09-28T15:05:25.429Z,99720.81
2022-09-28T15:07:54.548Z,99715.97
2022-09-28T15:10:32.357Z,99723.25
2022-09-28T15:13:02.404Z,99722.44
2022-09-28T15:15:34.525Z,99724.06
2022-09-28T15:18:42.695Z,99710.28
2022-09-28T15:21:11.609Z,99727.31
2022-09-28T15:23:41.646Z,99732.44
2022-09-28T15:26:24.119Z,99729.19
2022-09-28T15:28:51.849Z,99730.53
2022-09-28T15:31:21.773Z,99735.41
2022-09-28T15:34:07.334Z,99741.06
2022-09-28T15:36:39.716Z,99742.97
2022-09-28T15:39:13.432Z,99746.75
2022-09-28T15:41:44.263Z,99747.81
2022-09-28T15:44:29.075Z,99747.28
2022-09-28T15:47:08.478Z,99748.34
2022-09-28T15:49:41.189Z,99753.22
2022-09-28T15:52:23.155Z,99758.34
2022-09-28T15:54:51.299Z,99752.13
2022-09-28T15:57:37.044Z,99753.22
2022-09-28T16:00:08.088Z,99759.69
2022-09-28T16:02:36.728Z,99760.75
2022-09-28T16:05:05.388Z,99764.28
2022-09-28T16:07:38.421Z,99765.34
2022-09-28T16:10:37.652Z,99765.09
2022-09-28T16:13:15.646Z,99773.47
2022-09-28T16:15:43.973Z,99769.69
2022-09-28T16:18:22.135Z,99769.44
2022-09-28T16:20:52.344Z,99770.22
2022-09-28T16:23:26.936Z,99765.34
2022-09-28T16:25:59.824Z,99770.19
2022-09-28T16:28:46.216Z,99771.78
2022-09-28T16:31:27.909Z,99766.06
2022-09-28T16:33:58.955Z,99756.91
2022-09-28T16:36:29.870Z,99768.78
2022-09-28T16:38:57.647Z,99766.38
2022-09-28T16:41:30.344Z,99774.22
2022-09-28T16:44:01.048Z,99768.84
2022-09-28T16:46:32.607Z,99777.22
2022-09-28T16:49:02.999Z,99773.44
2022-09-28T16:51:30.815Z,99781.81
2022-09-28T16:54:19.025Z,99770.19
2022-09-28T16:56:48.122Z,99780.72
2022-09-28T16:59:15.989Z,99781.28
2022-09-28T17:01:44.009Z,99773.72
2022-09-28T17:04:12.705Z,99775.06
2022-09-28T17:06:40.500Z,99786.41
2022-09-28T17:09:12.825Z,99779.66
2022-09-28T17:11:40.931Z,99781.28
2022-09-28T17:14:10.132Z,99792.09
2022-09-28T17:19:28.756Z,99792.63
2022-09-28T17:21:56.504Z,99774.50
2022-09-28T17:24:24.342Z,99796.13
2022-09-28T17:26:53.145Z,99796.34
2022-09-28T17:29:22.372Z,99794.97
2022-09-28T17:31:50.062Z,99791.97
2022-09-28T17:34:18.028Z,99798.19
2022-09-28T17:36:46.178Z,99799.28
2022-09-28T17:39:15.295Z,99799.88
2022-09-28T17:41:43.075Z,99799.34
2022-09-28T17:44:11.227Z,99807.19
2022-09-28T17:46:45.873Z,99809.38
2022-09-28T17:49:14.061Z,99810.47
2022-09-28T17:51:42.117Z,99804.25
2022-09-28T17:54:09.933Z,99803.44
2022-09-28T17:56:38.078Z,99808.84
2022-09-28T17:59:07.299Z,99815.88
2022-09-28T18:01:38.863Z,99809.38
2022-09-28T18:04:13.204Z,99811.28
2022-09-28T18:06:46.954Z,99819.94
2022-09-28T18:09:16.443Z,99820.47
2022-09-28T18:11:46.058Z,99822.09
2022-09-28T18:14:13.881Z,99822.63
2022-09-28T18:16:41.678Z,99825.88
2022-09-28T18:19:10.797Z,99824.50
2022-09-28T18:21:38.522Z,99825.84
2022-09-28T18:24:06.541Z,99826.13
2022-09-28T18:26:34.369Z,99827.47
2022-09-28T18:29:02.095Z,99826.94
2022-09-28T18:31:29.918Z,99829.13
2022-09-28T18:34:01.669Z,99835.06
2022-09-28T18:36:31.799Z,99825.59
2022-09-28T18:39:01.494Z,99834.78
2022-09-28T18:41:29.721Z,99834.25
2022-09-28T18:44:00.765Z,99834.78
2022-09-28T18:46:29.403Z,99839.09
2022-09-28T18:48:57.671Z,99844.78
2022-09-28T18:51:25.451Z,99839.66
2022-09-28T18:53:54.571Z,99839.91
2022-09-28T18:56:22.871Z,99826.41
2022-09-28T18:58:52.756Z,99843.16
2022-09-28T19:01:30.753Z,99840.16
2022-09-28T19:04:00.206Z,99822.06
2022-09-28T19:06:28.299Z,99843.69
2022-09-28T19:08:57.838Z,99849.66
2022-09-28T19:11:27.107Z,99849.66
2022-09-28T19:13:56.034Z,99842.66
2022-09-28T19:16:26.044Z,99844.53
2022-09-28T19:18:53.974Z,99836.94
2022-09-28T19:21:22.179Z,99841.00
2022-09-28T19:23:50.215Z,99838.31
2022-09-28T19:26:21.417Z,99837.22
2022-09-28T19:28:49.333Z,99840.72
2022-09-28T19:31:17.563Z,99843.44
2022-09-28T19:33:46.777Z,99846.94
2022-09-28T19:36:17.727Z,99845.84
2022-09-28T19:38:46.355Z,99852.06
2022-09-28T19:41:39.315Z,99851.00
2022-09-28T19:44:13.509Z,99853.41
2022-09-28T19:46:41.686Z,99853.94
2022-09-28T19:49:12.482Z,99847.47
2022-09-28T19:52:01.709Z,99857.72
2022-09-28T19:54:36.170Z,99856.63
2022-09-28T19:57:07.945Z,99855.28
2022-09-28T19:59:38.035Z,99857.69
2022-09-28T20:02:07.256Z,99856.34
2022-09-28T20:04:35.174Z,99862.00
2022-09-28T20:07:03.699Z,99859.56
2022-09-28T20:09:32.353Z,99867.13
2022-09-28T20:12:00.175Z,99876.28
2022-09-28T20:14:32.026Z,99867.91
2022-09-28T20:17:05.574Z,99870.88
2022-09-28T20:19:33.584Z,99879.25
2022-09-28T20:22:03.180Z,99864.63
2022-09-28T20:24:31.576Z,99880.31
2022-09-28T20:27:00.638Z,99880.56
2022-09-28T20:29:28.343Z,99878.97
2022-09-28T20:31:56.792Z,99877.59
2022-09-28T20:34:25.903Z,99879.47
2022-09-28T20:36:53.842Z,99863.25
2022-09-28T20:39:21.639Z,99877.06
2022-09-28T20:41:49.423Z,99879.19
2022-09-28T20:44:17.515Z,99879.47
2022-09-28T20:46:45.400Z,99875.13
2022-09-28T20:49:13.190Z,99880.53
2022-09-28T20:51:42.367Z,99873.50
2022-09-28T20:54:10.291Z,99874.59
2022-09-28T20:56:39.012Z,99875.41
2022-09-28T20:59:09.099Z,99867.84
2022-09-28T21:01:36.934Z,99868.09
2022-09-28T21:04:06.849Z,99871.06
2022-09-28T21:06:36.930Z,99877.78
2022-09-28T21:09:07.724Z,99867.25
2022-09-28T21:11:36.655Z,99868.34
2022-09-28T21:14:06.373Z,99857.47
2022-09-28T21:16:35.608Z,99875.88
2022-09-28T21:19:03.625Z,99874.25
2022-09-28T21:21:31.409Z,99871.78
2022-09-28T21:23:59.766Z,99873.13
2022-09-28T21:26:31.323Z,99877.72
2022-09-28T21:29:01.425Z,99873.38
2022-09-28T21:31:32.528Z,99878.78
2022-09-28T21:34:00.706Z,99868.25
2022-09-28T21:36:28.525Z,99869.31
2022-09-28T21:38:56.226Z,99872.03
2022-09-28T21:41:24.396Z,99874.19
2022-09-28T21:43:53.730Z,99875.25
2022-09-28T21:46:21.611Z,99886.31
2022-09-28T21:48:53.587Z,99880.09
2022-09-28T21:51:21.981Z,99881.97
2022-09-28T21:53:50.258Z,99889.53
2022-09-28T21:56:18.596Z,99885.19
2022-09-28T21:58:46.328Z,99886.00
2022-09-28T22:01:18.295Z,99894.09
2022-09-28T22:03:48.112Z,99892.47
2022-09-28T22:06:16.283Z,99904.34
2022-09-28T22:08:43.995Z,99901.63
2022-09-28T22:11:13.367Z,99903.78
2022-09-28T22:13:43.310Z,99892.13
2022-09-28T22:16:11.892Z,99904.31
2022-09-28T22:18:41.528Z,99907.81
2022-09-28T22:21:13.495Z,99912.41
2022-09-28T22:23:41.555Z,99914.28
2022-09-28T22:26:11.549Z,99915.34
2022-09-28T22:28:40.259Z,99910.22
2022-09-28T22:31:08.065Z,99912.38
2022-09-28T22:33:35.786Z,99912.38
2022-09-28T22:36:05.336Z,99911.00
2022-09-28T22:38:33.591Z,99913.69
2022-09-28T22:41:03.369Z,99911.25
2022-09-28T22:43:34.024Z,99903.66
2022-09-28T22:46:03.384Z,99915.03
2022-09-28T22:48:31.431Z,99914.22
2022-09-28T22:50:59.588Z,99910.69
2022-09-28T22:53:29.492Z,99910.97
2022-09-28T22:55:57.474Z,99925.53
2022-09-28T22:58:25.263Z,99922.81
2022-09-28T23:00:54.008Z,99925.78
2022-09-28T23:03:21.692Z,99920.38
2022-09-28T23:05:56.503Z,99924.16
2022-09-28T23:08:25.302Z,99919.03
2022-09-28T23:10:54.443Z,99914.94
2022-09-28T23:13:22.249Z,99916.03
2022-09-28T23:16:00.286Z,99913.31
2022-09-28T23:18:30.717Z,99914.41
2022-09-28T23:20:59.971Z,99906.56
2022-09-28T23:23:27.701Z,99908.44
2022-09-28T23:25:57.473Z,99917.63
2022-09-28T23:28:27.008Z,99913.28
2022-09-28T23:30:55.015Z,99916.25
2022-09-28T23:33:23.665Z,99914.63
2022-09-28T23:35:51.689Z,99915.69
2022-09-28T23:38:19.877Z,99914.88
2022-09-28T23:40:47.933Z,99915.94
2022-09-28T23:43:17.029Z,99910.00
2022-09-28T23:45:45.020Z,99910.00
2022-09-28T23:48:14.956Z,99904.56
2022-09-28T23:50:43.540Z,99915.91
2022-09-28T23:53:11.867Z,99912.41
2022-09-28T23:55:39.641Z,99906.47
2022-09-28T23:58:07.459Z,99907.53
